x

South Santa Rosa Is. Ca (46069) Wave Buoy

5:50 - Sun 2nd Aug 2015 All times are PDT. -7 hours from GMT.

  • Sig Wave height 4.6ft
  • Peak Period 6s
  • Average Period 5s
  • Wind
    25mph, 29mph gusts
  • Sea Temp 67°f
  • Ar Temp 65°f
  • Sea Pressure 1010.7mb
  • South Santa Rosa Is. Ca
  • South Santa Rosa Is. Ca

More Historic Weather Station data

Upgrade to MSW Pro to gain access to the past 30 days of data for over 8000 Wavebouys and Weather Stations around the globe.

Join Pro

Comparision Forecast

View Surf forecast
   
Dom 08/02 5:50 4.5ft 6s 5s 25 29 mph 1010.7mb 67f 65f
4:50 4.5ft 6s 5s 22 27 mph 1011.1mb 67f 65f
3:50 4.5ft 6s 5s 22 27 mph 1011.6mb 66f 65f
2:50 4.5ft 6s 5s 22 27 mph 1012.1mb 66f 65f
1:50 5ft 6s 5s 22 27 mph 1012.4mb 66f 64f
12:50 5ft 6s 5s 22 27 mph 1012.9mb 66f 64f
11:50 5.5ft 6s 5s 25 29 mph 1013.2mb 66f 64f
10:50 5.5ft 6s 5s 25 29 mph 1013.3mb 66f 64f
9:50 6ft 6s 5s 25 31 mph 1013.2mb 66f 64f
8:50 6ft 6s 5s 25 31 mph 1013.1mb 66f 64f
7:50 6ft 6s 5s 25 31 mph 1012.6mb 66f 64f
6:50 6ft 6s 5s 27 31 mph 1012.4mb 67f 64f
5:50 6ft 6s 5s 25 31 mph 1011.9mb 67f 64f
4:50 6ft 6s 5s 25 31 mph 1011.6mb 67f 64f
3:50 5.5ft 6s 5s 25 29 mph 1011.6mb 67f 65f
2:50 6ft 6s 5s 25 31 mph 1011.5mb 67f 65f
1:50 5.5ft 6s 5s 25 29 mph 1011.4mb 67f 65f
12:50 5.5ft 6s 5s 25 31 mph 1011.3mb 67f 65f
Sáb 08/01 11:50 5.5ft 6s 5s 25 29 mph 1011.5mb 67f 65f
10:50 5.5ft 6s 5s 25 31 mph 1012mb 67f 65f
9:50 5ft 5s 5s 27 31 mph 1012.1mb 67f 65f
8:50 5.5ft 6s 5s 27 31 mph 1011.9mb 67f 65f
7:50 5ft 5s 5s 27 31 mph 1011.9mb 68f 66f
6:50 5ft 5s 5s 27 31 mph 1012.1mb 68f 66f
5:50 4.5ft 5s 5s 25 29 mph 1012.2mb 69f 66f
4:50 4.5ft 6s 5s 20 25 mph 1012.9mb 69f 66f
3:50 4.5ft 5s 5s 22 25 mph 1013.2mb 69f 65f
2:50 4.5ft 5s 5s 20 25 mph 1013.5mb 68f 65f
1:50 4.5ft 5s 5s 20 22 mph 1013.9mb 68f 65f
12:50 4.5ft 5s 5s 20 22 mph 1014.5mb 68f 64f
11:50 5ft 5s 5s 20 25 mph 1014.7mb 68f 64f
10:50 5ft 5s 5s 20 25 mph 1014.7mb 67f 64f
9:50 4.5ft 5s 5s 20 22 mph 1014.8mb 67f 64f
8:50 4.5ft 9s 5s 20 22 mph 1015mb 67f 64f
7:50 4.5ft 6s 5s 18 22 mph 1014.6mb 67f 64f
6:50 5ft 6s 5s 18 22 mph 1014.3mb 67f 64f
5:50 4.5ft 5s 5s 20 25 mph 1013.8mb 67f 64f
4:50 4.5ft 5s 5s 20 25 mph 1013.7mb 68f 64f
3:50 4.5ft 14s 5s 20 22 mph 1013.7mb 67f 64f
2:50 4.5ft 5s 5s 18 22 mph 1013.7mb 67f 64f
1:50 4.5ft 15s 6s 20 22 mph 1013.9mb 67f 64f
12:50 4.5ft 14s 6s 18 20 mph 1014mb 67f 65f
Sex 07/31 11:50 4.5ft 15s 6s 18 20 mph 1014mb 67f 64f
10:50 4ft 14s 6s 18 22 mph 1014.1mb 68f 65f
9:50 3.5ft 14s 5s 18 22 mph 1014.3mb 69f 65f
8:50 4.5ft 14s 6s 18 20 mph 1013.9mb 69f 65f
7:50 4.5ft 9s 6s 18 22 mph 1013.6mb 69f 65f
6:50 4ft 14s 6s 16 20 mph 1013.7mb 69f 66f
5:50 4ft 9s 6s 16 18 mph 1014.1mb 69f 66f
4:50 3.5ft 14s 6s 16 18 mph 1014.7mb 69f 66f
3:50 4.5ft 14s 7s 13 16 mph 1015mb 69f 66f
2:50 3.5ft 14s 7s 13 16 mph 1015.5mb 69f 66f
1:50 3.5ft 14s 7s 13 16 mph 1016mb 69f 66f
12:50 4ft 10s 7s 11 13 mph 1016.5mb 68f 66f
11:50 4ft 10s 7s 11 13 mph 1016.5mb 68f 65f
9:50 4.5ft 15s 7s 11 13 mph 1016.5mb 68f 65f
8:50 4.5ft 10s 6s 13
mph
1016.4mb 68f 65f
7:50 4.5ft 9s 6s 11 16 mph 1016mb 68f 65f
6:50 3.5ft 14s 5s 13 18 mph 1015.5mb 68f 65f
5:50 5ft 14s 7s 13 18 mph 1015mb 68f 65f
4:50 4.5ft 14s 7s 13 16 mph 1015.1mb 68f 65f
3:50 4.5ft 10s 7s 13 16 mph 1015.2mb 68f 65f
2:50 4.5ft 10s 7s 11 13 mph 1015.4mb 68f 65f
1:50 5ft 9s 7s 11 13 mph 1015.6mb 68f 65f
12:50 5ft 14s 7s 11 13 mph 1015.8mb 67f 65f
Qui 07/30 11:50 5ft 15s 7s 13 16 mph 1015.4mb 67f 65f
10:50 5ft 15s 7s 13 16 mph 1015.6mb 68f 65f
9:50 5ft 9s 6s 16 18 mph 1015.1mb 68f 65f
8:50 5ft 15s 6s 18 20 mph 1014.7mb 68f 65f
7:50 4.5ft 15s 6s 18 20 mph 1014.4mb 69f 65f
6:50 4.5ft 15s 6s 18 20 mph 1013.9mb 69f 65f
5:50 5ft 9s 6s 16 20 mph 1014.4mb 69f 65f
4:50 5ft 10s 6s 18 20 mph 1014.3mb 69f 65f
3:50 4.5ft 15s 6s 18 22 mph 1014.7mb 69f 65f
2:50 4.5ft 14s 6s 18 20 mph 1015.2mb 69f 65f
1:50 5ft 15s 7s 16 18 mph 1015.8mb 69f 65f
12:50 4ft 10s 6s 16 20 mph 1016mb 69f 64f
11:50 4.5ft 15s 6s 16 18 mph 1016.1mb 69f 64f
10:50 4.5ft 16s 7s 13 16 mph 1016.1mb 69f 64f
9:50 5.5ft 9s 7s 13 16 mph 1015.8mb 69f 64f
8:50 5ft 10s 7s 13 16 mph 1015.8mb 69f 64f
7:50 5ft 15s 7s 11 18 mph 1015.5mb 69f 64f
6:50 5ft 11s 7s 13 16 mph 1014.8mb 69f 64f
5:50 5ft 10s 8s 13 16 mph 1014.4mb 68f 64f
4:50 5ft 10s 8s 13 16 mph 1014.4mb 68f 64f
3:50 5ft 15s 8s 11 13 mph 1014.5mb 68f 64f
2:50 5ft 9s 8s 9 11 mph 1014.7mb 68f 64f
1:50 5ft 17s 8s 11 16 mph 1014.3mb 68f 64f